LFOE 280930Z AUTO 21009KT 180V250 9999 BKN020 BKN025 OVC034 19/14 Q0999

ElémentsDécodage
LFOE Station météo située sur l'aérodrome de EVREUX Fauville
280930Z émis le 28 du mois à 09h30 UTC
AUTO Bulletin édité par un automate
21009KT vent du 210°, 09 noeuds
180V250 vent de direction variable entre 180° et 250°
9999 visibilité horizontale supérieure à 10 Km
BKN020 nuages morcelés (5/8 à 7/8) à 2000 pieds
BKN025 nuages morcelés (5/8 à 7/8) à 2500 pieds
OVC034 couverture nuageuse totale (8/8) à 3400 pieds
19/14 température 19°C, point de rosée 14°C
 soit une humidité relative de 73%
Q0999 la pression au niveau de la mer (QNH) est de 999 hPa